• Join FlightAware (Why Join?)
  • Login
  • US Flag 
Rudolph Flight #1: Arrived! 
02:36AM EST


 

Airport Tracker/Info


-or-


 

Live Flight TrackerFlight Track Log ✈ UAL1020 ✈ 29-Jun-2013 ✈ KIAH - MMUN / CUN

Flight Track Log - Related Links

Times and Time Zones

All times are in EDT time to prevent confusion due to time zone crossing. See the UAL1020 flight status page for this flight to view local times or setup timezone preferences in your user account.

Time Position Orientation Groundspeed Altitude Reporting Facility
EDT Latitude Longitude Course Direction KTS MPH feet Rate Location/Type
05:23PM 29.9953 -95.3661 151° Southeast 179 206 1,100  Level Houston Center
05:24PM 30.0056 -95.4083 286° West 236 272 2,100 1,620 Climbing Houston Center
05:25PM 29.9731 -95.4211 199° South 258 297 3,300 1,200 Climbing Houston Center
05:26PM 29.6772 -95.1403 150° Southeast  Level FlightAware Approximate
05:26PM 29.9183 -95.3619 137° Southeast 282 325 4,000  Level Houston Center
05:27PM 29.5759 -95.0728 150° Southeast  Level FlightAware Approximate
05:27PM 29.8950 -95.2761 107° East 282 325 6,100  Level Houston Center
05:28PM 29.4746 -95.0053 150° Southeast  Level FlightAware Approximate
05:28PM 29.8717 -95.1850 106° East 292 336 8,900  Level Houston Center
05:29PM 29.3719 -94.9408 151° Southeast  Level FlightAware Approximate
05:29PM 29.8269 -95.1031 122° Southeast 318 366 9,900  Level Houston Center
05:30PM 29.7356 -95.0642 160° South 345 397 11,500 1,620 Climbing Houston Center
05:31PM 29.6233 -95.0161 160° South 417 480 13,300 2,160 Climbing Houston Center
05:32PM 29.5075 -94.9681 160° South 432 497 16,000 2,460 Climbing Houston Center
05:33PM 29.3911 -94.9186 160° South 439 505 18,400 2,280 Climbing Houston Center
05:34PM 29.2575 -94.8400 153° Southeast 452 520 20,800 2,040 Climbing Houston Center
05:35PM 29.1892 -94.7164 122° Southeast 459 528 22,700 1,680 Climbing Houston Center
05:36PM 29.1222 -94.5900 121° Southeast 465 535 24,300 1,500 Climbing Houston Center
05:37PM 29.0542 -94.4614 121° Southeast 472 543 25,800 1,680 Climbing Houston Center
05:38PM 28.9697 -94.3425 129° Southeast 479 551 27,800 1,800 Climbing Houston Center
05:39PM 28.8853 -94.2269 130° Southeast 477 549 29,500 1,560 Climbing Houston Center
05:40PM 28.7822 -94.0878 130° Southeast 478 550 31,000 720 Climbing Houston Center
05:41PM 28.6992 -93.9736 130° Southeast 471 542 31,000 660 Level Houston Center
05:42PM 28.6164 -93.8592 129° Southeast 469 540 32,400 1,380 Climbing Houston Center
05:43PM 28.5328 -93.7486 131° Southeast 464 534 33,900 1,260 Climbing Houston Center
05:44PM 28.4514 -93.6381 130° Southeast 457 526 35,000 480 Climbing Houston Center
05:45PM 28.3689 -93.5267 130° Southeast 458 527 35,000  Level Houston Center
05:46PM 28.2867 -93.4153 130° Southeast 461 531 35,000  Level Houston Center
05:47PM 28.1881 -93.2833 130° Southeast 459 528 35,000  Level Houston Center
05:48PM 28.1103 -93.1800 130° Southeast 458 527 35,000  Level Houston Center
05:49PM 28.0281 -93.0700 130° Southeast 458 527 35,000  Level Houston Center
05:50PM 27.9464 -92.9592 130° Southeast 458 527 35,000  Level Houston Center
05:51PM 27.8636 -92.8508 131° Southeast 457 526 35,000  Level Houston Center
05:52PM 27.7633 -92.7192 131° Southeast 460 529 35,000 180 Level Houston Center
05:53PM 27.6803 -92.6081 130° Southeast 462 532 35,400 960 Climbing Houston Center
05:54PM 27.5989 -92.5053 132° Southeast 444 511 37,000 780 Climbing Houston Center
05:56PM 27.5167 -92.3933 130° Southeast 437 503 37,000 -60 Level Houston Center
05:57PM 27.4444 -92.2953 130° Southeast 437 503 36,900  Descending Houston Center
05:58PM 27.3569 -92.1889 133° Southeast 434 499 37,000  Climbing Houston Center
05:59PM 27.2850 -92.0936 130° Southeast 432 497 37,000  Level Houston Center
06:00PM 27.1911 -91.9703 131° Southeast 433 498 37,000  Level Houston Center
06:02PM 27.0270 -91.8213 144° Southeast  Level FlightAware Approximate
06:09PM 26.3832 -91.3095 145° Southeast  Level FlightAware Approximate
06:10PM 26.2910 -91.2368 145° Southeast  Level FlightAware Approximate
06:11PM 26.1989 -91.1642 145° Southeast  Level FlightAware Approximate
06:12PM 26.1068 -91.0917 145° Southeast  Level FlightAware Approximate
06:13PM 26.0146 -91.0193 145° Southeast  Level FlightAware Approximate
06:14PM 25.9223 -90.9471 145° Southeast  Level FlightAware Approximate
06:15PM 25.8301 -90.8749 145° Southeast  Level FlightAware Approximate
06:16PM 25.7378 -90.8029 145° Southeast  Level FlightAware Approximate
06:17PM 25.6455 -90.7310 145° Southeast  Level FlightAware Approximate
06:18PM 25.5531 -90.6592 145° Southeast  Level FlightAware Approximate
06:19PM 25.4607 -90.5875 145° Southeast  Level FlightAware Approximate
06:20PM 25.3682 -90.5159 145° Southeast  Level FlightAware Approximate
06:21PM 25.2758 -90.4444 145° Southeast  Level FlightAware Approximate
06:22PM 25.1833 -90.3730 145° Southeast  Level FlightAware Approximate
06:23PM 25.0907 -90.3018 145° Southeast  Level FlightAware Approximate
06:24PM 24.9981 -90.2306 145° Southeast  Level FlightAware Approximate
06:25PM 24.9055 -90.1596 145° Southeast  Level FlightAware Approximate
06:26PM 24.8129 -90.0886 145° Southeast  Level FlightAware Approximate
06:27PM 24.7202 -90.0178 145° Southeast  Level FlightAware Approximate
06:28PM 24.6275 -89.9471 145° Southeast  Level FlightAware Approximate
06:29PM 24.5347 -89.8764 145° Southeast  Level FlightAware Approximate
06:30PM 24.4434 -89.8040 146° Southeast  Level FlightAware Approximate
06:31PM 24.3495 -89.7353 146° Southeast  Level FlightAware Approximate
06:32PM 24.2557 -89.6666 146° Southeast  Level FlightAware Approximate
06:33PM 24.1618 -89.5981 146° Southeast  Level FlightAware Approximate
06:34PM 24.0678 -89.5296 146° Southeast  Level FlightAware Approximate
06:35PM 23.9755 -89.4586 145° Southeast  Level FlightAware Approximate
06:36PM 23.8836 -89.3871 145° Southeast  Level FlightAware Approximate
06:37PM 23.7916 -89.3156 145° Southeast  Level FlightAware Approximate
06:38PM 23.6990 -89.2453 146° Southeast  Level FlightAware Approximate
06:39PM 23.6059 -89.1758 146° Southeast  Level FlightAware Approximate
06:40PM 23.5127 -89.1065 146° Southeast  Level FlightAware Approximate
06:41PM 23.4195 -89.0372 146° Southeast  Level FlightAware Approximate
06:42PM 23.3262 -88.9680 146° Southeast  Level FlightAware Approximate
06:43PM 23.2329 -88.8990 146° Southeast  Level FlightAware Approximate
06:44PM 23.1395 -88.8302 146° Southeast  Level FlightAware Approximate
06:45PM 23.0457 -88.7620 146° Southeast  Level FlightAware Approximate
06:46PM 22.9527 -88.6928 144° Southeast  Level FlightAware Approximate
06:47PM 22.8610 -88.6215 144° Southeast  Level FlightAware Approximate
06:48PM 22.7693 -88.5501 144° Southeast  Level FlightAware Approximate
06:49PM 22.6774 -88.4792 147° Southeast  Level FlightAware Approximate
06:50PM 22.5823 -88.4134 147° Southeast  Level FlightAware Approximate
06:51PM 22.4873 -88.3476 147° Southeast  Level FlightAware Approximate
06:52PM 22.3941 -88.2789 145° Southeast  Level FlightAware Approximate
06:53PM 22.3014 -88.2093 145° Southeast  Level FlightAware Approximate
06:54PM 22.2066 -88.1433 148° Southeast  Level FlightAware Approximate
06:55PM 22.1207 -88.0658 133° Southeast  Level FlightAware Approximate
06:56PM 22.0441 -87.9764 133° Southeast  Level FlightAware Approximate
06:57PM 21.9675 -87.8871 133° Southeast  Level FlightAware Approximate
06:58PM 21.8876 -87.8013 136° Southeast  Level FlightAware Approximate
06:59PM 21.8067 -87.7166 136° Southeast  Level FlightAware Approximate
07:00PM 21.7258 -87.6319 136° Southeast  Level FlightAware Approximate
07:01PM 21.6448 -87.5474 136° Southeast  Level FlightAware Approximate
07:02PM 21.5652 -87.4615 132° Southeast  Level FlightAware Approximate
07:03PM 21.4889 -87.3723 137° Southeast  Level FlightAware Approximate
07:04PM 21.4094 -87.2863 134° Southeast  Level FlightAware Approximate
07:05PM 21.3310 -87.1992 134° Southeast  Level FlightAware Approximate
07:06PM 21.2492 -87.1159 137° Southeast  Level FlightAware Approximate
07:07PM 21.1735 -87.0269 126° Southeast  Level FlightAware Approximate
07:08PM 21.0928 -86.9428 137° Southeast  Level FlightAware Approximate
07:09PM 21.0365 -86.8771 137° Southeast  Level Estimated
07:10PM 21.0365 -86.8771 137° Southeast  Level Estimated